createdAt,value
2019-02-26T00:01:59.430Z,7.58
2019-02-26T00:04:29.759Z,9.55
2019-02-26T00:07:02.660Z,5.35
2019-02-26T00:09:35.371Z,5.78
2019-02-26T00:12:05.185Z,11.25
2019-02-26T00:14:37.807Z,10.95
2019-02-26T00:17:10.547Z,4.80
2019-02-26T00:19:38.919Z,4.22
2019-02-26T00:22:09.580Z,4.33
2019-02-26T00:24:42.705Z,6.67
2019-02-26T00:27:15.525Z,6.50
2019-02-26T00:29:46.361Z,5.47
2019-02-26T00:32:18.392Z,11.50
2019-02-26T00:34:47.797Z,4.75
2019-02-26T00:37:17.400Z,4.40
2019-02-26T00:39:47.417Z,13.38
2019-02-26T00:42:21.532Z,8.08
2019-02-26T00:44:53.316Z,11.20
2019-02-26T00:47:29.872Z,7.28
2019-02-26T00:49:57.320Z,8.20
2019-02-26T00:52:28.307Z,11.57
2019-02-26T00:54:59.845Z,5.58
2019-02-26T00:57:36.469Z,5.12
2019-02-26T01:00:10.633Z,15.53
2019-02-26T01:02:41.349Z,4.33
2019-02-26T01:05:12.976Z,7.30
2019-02-26T01:07:44.908Z,5.55
2019-02-26T01:10:21.221Z,5.33
2019-02-26T01:12:51.724Z,4.58
2019-02-26T01:15:21.575Z,5.58
2019-02-26T01:17:51.332Z,7.22
2019-02-26T01:20:24.847Z,5.17
2019-02-26T01:22:53.811Z,6.72
2019-02-26T01:25:25.041Z,9.73
2019-02-26T01:27:56.251Z,5.28
2019-02-26T01:30:27.036Z,6.10
2019-02-26T01:32:58.221Z,5.15
2019-02-26T01:35:33.212Z,7.67
2019-02-26T01:38:04.359Z,5.47
2019-02-26T01:40:34.293Z,5.80
2019-02-26T01:43:07.639Z,8.85
2019-02-26T01:45:37.251Z,11.03
2019-02-26T01:48:08.767Z,8.03
2019-02-26T01:50:41.103Z,4.80
2019-02-26T01:53:12.116Z,5.17
2019-02-26T01:55:43.687Z,4.05
2019-02-26T01:58:16.527Z,5.05
2019-02-26T02:00:46.394Z,6.85
2019-02-26T02:03:16.081Z,8.23
2019-02-26T02:05:47.506Z,4.47
2019-02-26T02:08:17.987Z,5.67
2019-02-26T02:10:51.405Z,7.78
2019-02-26T02:13:25.954Z,8.50
2019-02-26T02:15:53.971Z,8.83
2019-02-26T02:18:25.346Z,6.83
2019-02-26T02:20:54.893Z,5.33
2019-02-26T02:23:25.802Z,7.33
2019-02-26T02:26:02.186Z,4.50
2019-02-26T02:28:30.964Z,6.80
2019-02-26T02:31:00.424Z,5.12
2019-02-26T02:33:32.077Z,5.08
2019-02-26T02:36:04.563Z,6.85
2019-02-26T02:38:36.481Z,7.75
2019-02-26T02:41:05.491Z,7.85
2019-02-26T02:43:37.153Z,7.47
2019-02-26T02:46:11.371Z,4.00
2019-02-26T02:48:40.976Z,7.28
2019-02-26T02:51:13.476Z,4.97
2019-02-26T02:53:41.909Z,5.33
2019-02-26T02:56:15.139Z,10.48
2019-02-26T02:58:46.193Z,7.92
2019-02-26T03:01:16.737Z,4.70
2019-02-26T03:03:47.715Z,10.63
2019-02-26T03:06:20.655Z,11.00
2019-02-26T03:08:51.087Z,7.95
2019-02-26T03:11:21.782Z,5.50
2019-02-26T03:13:53.865Z,5.67
2019-02-26T03:16:27.037Z,5.87
2019-02-26T03:18:56.291Z,4.12
2019-02-26T03:21:27.773Z,7.83
2019-02-26T03:23:57.777Z,8.05
2019-02-26T03:26:31.424Z,9.80
2019-02-26T03:29:01.044Z,6.80
2019-02-26T03:31:35.110Z,8.05
2019-02-26T03:34:08.821Z,5.42
2019-02-26T03:36:34.211Z,5.55
2019-02-26T03:39:09.036Z,5.83
2019-02-26T03:41:38.728Z,3.98
2019-02-26T03:44:08.834Z,4.97
2019-02-26T03:46:38.527Z,5.58
2019-02-26T03:49:10.892Z,5.35
2019-02-26T03:51:40.513Z,5.58
2019-02-26T03:54:10.134Z,9.40
2019-02-26T03:56:39.743Z,6.30
2019-02-26T03:59:11.689Z,5.08
2019-02-26T04:01:40.841Z,5.67
2019-02-26T04:04:11.516Z,5.17
2019-02-26T04:06:46.913Z,8.05
2019-02-26T04:09:18.938Z,7.65
2019-02-26T04:11:50.336Z,11.63
2019-02-26T04:14:20.166Z,5.47
2019-02-26T04:16:52.598Z,6.67
2019-02-26T04:19:26.132Z,7.87
2019-02-26T04:22:26.699Z,5.87
2019-02-26T04:25:01.504Z,5.05
2019-02-26T04:27:57.005Z,6.15
2019-02-26T04:30:47.170Z,3.65
2019-02-26T04:33:42.177Z,11.20
2019-02-26T04:36:34.433Z,5.95
2019-02-26T04:39:47.773Z,8.78
2019-02-26T04:43:04.705Z,5.25
2019-02-26T04:45:57.310Z,5.90
2019-02-26T04:48:29.230Z,8.08
2019-02-26T04:50:59.984Z,7.40
2019-02-26T04:53:31.284Z,5.80
2019-02-26T04:56:02.977Z,5.70
2019-02-26T04:58:34.208Z,4.70
2019-02-26T05:01:04.780Z,6.17
2019-02-26T05:03:37.432Z,8.68
2019-02-26T05:06:07.868Z,4.95
2019-02-26T05:08:40.359Z,4.45
2019-02-26T05:11:14.838Z,6.45
2019-02-26T05:13:42.038Z,6.17
2019-02-26T05:16:12.219Z,4.45
2019-02-26T05:18:44.454Z,4.08
2019-02-26T05:21:13.147Z,4.55
2019-02-26T05:23:46.598Z,4.47
2019-02-26T05:26:18.709Z,6.95
2019-02-26T05:28:49.707Z,7.03
2019-02-26T05:31:18.795Z,4.60
2019-02-26T05:33:52.508Z,5.33
2019-02-26T05:36:39.041Z,6.58
2019-02-26T05:39:08.732Z,4.83
2019-02-26T05:41:41.258Z,5.70
2019-02-26T05:44:13.952Z,8.68
2019-02-26T05:46:43.571Z,6.40
2019-02-26T05:49:16.146Z,5.95
2019-02-26T05:51:44.530Z,7.12
2019-02-26T05:54:15.293Z,8.98
2019-02-26T05:56:49.817Z,5.55
2019-02-26T05:59:21.464Z,7.12
2019-02-26T06:01:52.735Z,8.30
2019-02-26T06:04:21.202Z,8.08
2019-02-26T06:06:53.250Z,6.17
2019-02-26T06:09:25.268Z,4.55
2019-02-26T06:11:56.477Z,6.30
2019-02-26T06:14:27.650Z,4.95
2019-02-26T06:16:57.742Z,6.62
2019-02-26T06:22:37.409Z,5.42
2019-02-26T06:25:12.746Z,3.47
2019-02-26T06:27:38.525Z,10.18
2019-02-26T06:30:12.445Z,6.33
2019-02-26T06:32:45.066Z,7.67
2019-02-26T06:35:17.029Z,6.58
2019-02-26T06:37:47.347Z,5.40
2019-02-26T06:40:21.100Z,5.90
2019-02-26T06:42:52.823Z,5.75
2019-02-26T06:45:22.514Z,6.67
2019-02-26T06:47:53.992Z,7.55
2019-02-26T06:50:23.412Z,6.37
2019-02-26T06:52:53.038Z,5.97
2019-02-26T06:55:22.805Z,6.10
2019-02-26T06:57:55.041Z,10.00
2019-02-26T07:00:25.324Z,5.25
2019-02-26T07:02:55.232Z,5.28
2019-02-26T07:05:24.912Z,7.95
2019-02-26T07:07:56.940Z,3.22
2019-02-26T07:10:28.607Z,6.25
2019-02-26T07:12:57.176Z,8.18
2019-02-26T07:15:28.716Z,11.83
2019-02-26T07:18:02.238Z,3.85
2019-02-26T07:20:34.144Z,5.10
2019-02-26T07:23:00.912Z,5.47
2019-02-26T07:25:31.783Z,7.15
2019-02-26T07:28:02.911Z,5.90
2019-02-26T07:30:34.704Z,4.00
2019-02-26T07:33:05.342Z,6.42
2019-02-26T07:35:37.285Z,5.20
2019-02-26T07:38:06.835Z,10.23
2019-02-26T07:40:40.362Z,13.75
2019-02-26T07:43:12.217Z,6.53
2019-02-26T07:45:44.901Z,6.30
2019-02-26T07:48:18.606Z,5.65
2019-02-26T07:50:48.990Z,9.98
2019-02-26T07:53:21.641Z,7.15
2019-02-26T07:55:49.420Z,6.05
2019-02-26T07:58:19.038Z,6.22
2019-02-26T08:00:49.812Z,5.50
2019-02-26T08:03:21.843Z,8.58
2019-02-26T08:05:54.519Z,4.85
2019-02-26T08:08:24.154Z,6.95
2019-02-26T08:10:53.816Z,6.75
2019-02-26T08:13:24.421Z,5.75
2019-02-26T08:15:55.819Z,6.10
2019-02-26T08:18:26.138Z,5.80
2019-02-26T08:20:57.933Z,6.60
2019-02-26T08:23:27.834Z,7.45
2019-02-26T08:25:59.707Z,5.10
2019-02-26T08:28:33.299Z,11.48
2019-02-26T08:31:02.912Z,4.40
2019-02-26T08:33:32.538Z,5.30
2019-02-26T08:36:02.233Z,5.12
2019-02-26T08:38:31.928Z,3.85
2019-02-26T08:41:01.569Z,3.65
2019-02-26T08:43:31.191Z,12.37
2019-02-26T08:46:00.986Z,4.70
2019-02-26T08:48:30.765Z,9.70
2019-02-26T08:51:03.065Z,7.15
2019-02-26T08:53:32.886Z,6.10
2019-02-26T08:56:08.446Z,4.67
2019-02-26T08:58:38.262Z,3.98
2019-02-26T09:01:07.890Z,3.90
2019-02-26T09:03:40.654Z,4.50
2019-02-26T09:06:13.332Z,5.12
2019-02-26T09:08:41.309Z,5.05
2019-02-26T09:11:13.530Z,3.92
2019-02-26T09:13:43.870Z,3.45
2019-02-26T09:16:13.656Z,5.20
2019-02-26T09:18:43.585Z,4.12
2019-02-26T09:21:15.319Z,6.30
2019-02-26T09:23:47.426Z,6.62
2019-02-26T09:26:16.249Z,4.15
2019-02-26T09:28:48.214Z,3.40
2019-02-26T09:31:19.920Z,8.48
2019-02-26T09:33:49.629Z,8.05
2019-02-26T09:36:23.103Z,3.90
2019-02-26T09:38:51.447Z,4.80
2019-02-26T09:41:22.720Z,3.80
2019-02-26T09:43:52.363Z,4.12
2019-02-26T09:46:21.971Z,5.40
2019-02-26T09:48:51.974Z,9.63
2019-02-26T09:51:21.679Z,6.75
2019-02-26T09:53:52.602Z,3.65
2019-02-26T09:56:22.606Z,3.67
2019-02-26T09:58:52.242Z,4.90
2019-02-26T10:01:23.681Z,3.27
2019-02-26T10:03:55.979Z,4.47
2019-02-26T10:06:25.778Z,5.10
2019-02-26T10:08:59.444Z,3.15
2019-02-26T10:11:29.082Z,4.92
2019-02-26T10:14:02.733Z,3.05
2019-02-26T10:16:33.063Z,4.10
2019-02-26T10:19:02.871Z,3.42
2019-02-26T10:21:34.776Z,5.25
2019-02-26T10:24:04.624Z,4.47
2019-02-26T10:26:36.589Z,2.85
2019-02-26T10:29:07.926Z,4.62
2019-02-26T10:31:40.172Z,4.20
2019-02-26T10:34:12.410Z,3.55
2019-02-26T10:36:44.167Z,4.60
2019-02-26T10:39:18.613Z,11.05
2019-02-26T10:41:51.894Z,2.87
2019-02-26T10:44:23.114Z,5.70
2019-02-26T10:46:52.746Z,3.72
2019-02-26T10:49:24.010Z,6.92
2019-02-26T10:51:55.566Z,3.42
2019-02-26T10:54:28.638Z,4.08
2019-02-26T10:57:07.441Z,4.28
2019-02-26T10:59:35.202Z,2.77
2019-02-26T11:02:09.803Z,6.15
2019-02-26T11:04:43.774Z,3.42
2019-02-26T11:07:14.175Z,4.83
2019-02-26T11:09:44.905Z,6.72
2019-02-26T11:12:16.300Z,3.20
2019-02-26T11:14:46.079Z,2.27
2019-02-26T11:17:15.825Z,2.77
2019-02-26T11:19:48.650Z,5.97
2019-02-26T11:22:21.337Z,7.70
2019-02-26T11:24:53.389Z,4.53
2019-02-26T11:27:22.750Z,5.30
2019-02-26T11:29:54.475Z,5.53
2019-02-26T11:32:27.104Z,13.60
2019-02-26T11:34:57.094Z,11.15
2019-02-26T11:37:27.168Z,13.65
2019-02-26T11:39:59.951Z,17.82
2019-02-26T11:42:29.059Z,17.55
2019-02-26T11:45:00.505Z,14.60
2019-02-26T11:47:32.820Z,21.23
2019-02-26T11:50:04.759Z,11.85
2019-02-26T11:52:36.361Z,14.43
2019-02-26T11:55:06.570Z,15.83
2019-02-26T11:57:37.693Z,12.23
2019-02-26T12:00:13.943Z,10.72
2019-02-26T12:02:44.132Z,11.48
2019-02-26T12:05:14.358Z,12.98
2019-02-26T12:07:48.719Z,16.97
2019-02-26T12:10:18.573Z,19.32
2019-02-26T12:12:49.079Z,13.10
2019-02-26T12:15:19.625Z,17.17
2019-02-26T12:17:51.763Z,12.45
2019-02-26T12:20:24.600Z,19.37
2019-02-26T12:22:55.418Z,14.43
2019-02-26T12:25:25.259Z,20.65
2019-02-26T12:27:57.218Z,11.93
2019-02-26T12:30:29.598Z,9.05
2019-02-26T12:32:59.270Z,23.02
2019-02-26T12:35:29.665Z,13.25
2019-02-26T12:38:16.737Z,13.45
2019-02-26T12:40:37.935Z,15.60
2019-02-26T12:43:11.478Z,20.52
2019-02-26T12:45:41.371Z,10.00
2019-02-26T12:48:22.671Z,7.40
2019-02-26T12:50:55.612Z,9.48
2019-02-26T12:53:25.130Z,8.65
2019-02-26T12:55:56.568Z,8.15
2019-02-26T12:58:27.789Z,11.05
2019-02-26T13:00:57.400Z,9.90
2019-02-26T13:03:27.009Z,5.30
2019-02-26T13:05:56.627Z,4.92
2019-02-26T13:08:28.728Z,3.87
2019-02-26T13:10:58.550Z,7.03
2019-02-26T13:13:28.246Z,4.40
2019-02-26T13:16:00.771Z,8.28
2019-02-26T13:18:30.544Z,3.65
2019-02-26T13:21:03.691Z,6.97
2019-02-26T13:23:31.502Z,13.03
2019-02-26T13:26:08.024Z,9.30
2019-02-26T13:28:37.882Z,14.38
2019-02-26T13:31:08.785Z,9.50
2019-02-26T13:33:41.972Z,24.65
2019-02-26T13:36:12.834Z,11.50
2019-02-26T13:38:45.929Z,10.75
2019-02-26T13:41:28.755Z,10.45
2019-02-26T13:43:45.447Z,14.07
2019-02-26T13:46:15.418Z,14.60
2019-02-26T13:48:46.038Z,14.30
2019-02-26T13:51:21.706Z,10.00
2019-02-26T13:53:51.418Z,8.48
2019-02-26T13:56:21.020Z,6.72
2019-02-26T13:58:50.624Z,11.85
2019-02-26T14:01:22.734Z,7.70
2019-02-26T14:03:52.348Z,6.85
2019-02-26T14:06:21.966Z,6.67
2019-02-26T14:08:51.854Z,8.08
2019-02-26T14:11:21.476Z,17.98
2019-02-26T14:13:51.106Z,11.30
2019-02-26T14:16:20.884Z,7.33
2019-02-26T14:18:50.567Z,9.88
2019-02-26T14:21:20.202Z,12.15
2019-02-26T14:23:49.853Z,7.22
2019-02-26T14:26:19.452Z,9.23
2019-02-26T14:28:50.383Z,8.28
2019-02-26T14:31:20.300Z,7.97
2019-02-26T14:33:49.905Z,9.23
2019-02-26T14:36:19.542Z,10.15
2019-02-26T14:38:49.162Z,12.25
2019-02-26T14:41:18.845Z,17.65
2019-02-26T14:43:48.490Z,18.50
2019-02-26T14:46:22.388Z,13.72
2019-02-26T14:48:53.091Z,19.37
2019-02-26T14:51:22.700Z,26.07
2019-02-26T14:53:52.614Z,18.37
2019-02-26T14:56:25.172Z,18.70
2019-02-26T14:58:55.466Z,32.45
2019-02-26T15:01:25.102Z,18.80
2019-02-26T15:03:55.016Z,19.23
2019-02-26T15:06:24.634Z,28.15
2019-02-26T15:08:56.996Z,19.30
2019-02-26T15:11:26.604Z,17.92
2019-02-26T15:13:56.324Z,35.13
2019-02-26T15:16:25.957Z,24.47
2019-02-26T15:18:58.021Z,17.37
2019-02-26T15:21:29.616Z,15.50
2019-02-26T15:23:59.314Z,27.17
2019-02-26T15:26:29.095Z,21.42
2019-02-26T15:29:00.238Z,16.50
2019-02-26T15:31:31.707Z,16.57
2019-02-26T15:34:01.338Z,19.42
2019-02-26T15:36:31.047Z,25.45
2019-02-26T15:39:03.527Z,16.90
2019-02-26T15:41:34.821Z,23.77
2019-02-26T15:44:09.105Z,16.23
2019-02-26T15:46:38.749Z,28.98
2019-02-26T15:49:08.384Z,18.92
2019-02-26T15:51:38.002Z,17.10
2019-02-26T15:54:10.114Z,12.47
2019-02-26T15:56:39.761Z,14.60
2019-02-26T15:59:15.543Z,11.22
2019-02-26T16:01:46.441Z,9.13
2019-02-26T16:04:16.128Z,12.45
2019-02-26T16:06:45.890Z,15.58
2019-02-26T16:09:15.790Z,8.98
2019-02-26T16:11:45.438Z,11.68
2019-02-26T16:14:15.142Z,13.68
2019-02-26T16:16:44.769Z,6.80
2019-02-26T16:19:14.393Z,4.87
2019-02-26T16:21:44.184Z,8.20
2019-02-26T16:24:14.889Z,5.35
2019-02-26T16:26:44.761Z,8.80
2019-02-26T16:29:17.156Z,4.37
2019-02-26T16:31:47.295Z,4.70
2019-02-26T16:34:17.481Z,5.33
2019-02-26T16:36:48.283Z,6.55
2019-02-26T16:39:18.150Z,4.33
2019-02-26T16:41:47.765Z,4.67
2019-02-26T16:44:17.376Z,5.80
2019-02-26T16:46:47.110Z,4.53
2019-02-26T16:49:16.973Z,3.90
2019-02-26T16:51:55.043Z,4.70
2019-02-26T16:54:24.795Z,9.80
2019-02-26T16:56:55.912Z,3.83
2019-02-26T16:59:25.635Z,6.10
2019-02-26T17:01:55.593Z,4.80
2019-02-26T17:04:26.190Z,5.45
2019-02-26T17:06:55.986Z,7.35
2019-02-26T17:09:26.270Z,4.35
2019-02-26T17:11:56.067Z,3.95
2019-02-26T17:14:26.161Z,5.05
2019-02-26T17:16:58.332Z,5.78
2019-02-26T17:19:29.398Z,4.50
2019-02-26T17:22:01.849Z,5.55
2019-02-26T17:24:31.408Z,7.87
2019-02-26T17:27:01.043Z,6.35
2019-02-26T17:29:31.652Z,11.40
2019-02-26T17:32:04.036Z,3.58
2019-02-26T17:34:32.592Z,2.52
2019-02-26T17:37:03.529Z,7.95
2019-02-26T17:39:33.182Z,6.05
2019-02-26T17:42:02.815Z,10.15
2019-02-26T17:44:32.449Z,8.03
2019-02-26T17:47:02.147Z,7.42
2019-02-26T17:49:36.147Z,5.55
2019-02-26T17:52:03.746Z,3.17
2019-02-26T17:54:36.903Z,4.83
2019-02-26T17:57:06.137Z,4.92
2019-02-26T17:59:38.960Z,3.25
2019-02-26T18:02:08.604Z,4.42
2019-02-26T18:04:38.234Z,8.25
2019-02-26T18:07:07.897Z,5.12
2019-02-26T18:09:37.580Z,2.90
2019-02-26T18:12:07.199Z,7.30
2019-02-26T18:14:38.878Z,2.17
2019-02-26T18:17:08.232Z,4.90
2019-02-26T18:19:37.857Z,7.70
2019-02-26T18:22:08.093Z,8.95
2019-02-26T18:24:37.755Z,3.92
2019-02-26T18:27:07.411Z,7.78
2019-02-26T18:29:37.019Z,3.75
2019-02-26T18:32:11.265Z,3.60
2019-02-26T18:34:41.040Z,10.85
2019-02-26T18:37:10.734Z,3.50
2019-02-26T18:39:43.671Z,4.30
2019-02-26T18:42:13.307Z,6.05
2019-02-26T18:44:42.940Z,4.53
2019-02-26T18:47:12.578Z,4.15
2019-02-26T18:49:43.207Z,6.78
2019-02-26T18:52:12.811Z,7.20
2019-02-26T18:54:42.450Z,14.25
2019-02-26T18:57:12.332Z,6.00
2019-02-26T18:59:41.976Z,3.33
2019-02-26T19:02:11.602Z,2.95
2019-02-26T19:04:42.938Z,7.35
2019-02-26T19:07:12.899Z,6.00
2019-02-26T19:09:46.002Z,6.97
2019-02-26T19:12:15.642Z,4.80
2019-02-26T19:14:46.252Z,7.65
2019-02-26T19:17:15.973Z,7.22
2019-02-26T19:19:45.590Z,4.25
2019-02-26T19:22:15.315Z,6.50
2019-02-26T19:24:45.007Z,6.72
2019-02-26T19:27:19.117Z,8.15
2019-02-26T19:29:46.132Z,4.35
2019-02-26T19:32:31.066Z,3.90
2019-02-26T19:35:12.324Z,5.62
2019-02-26T19:37:38.764Z,7.97
2019-02-26T19:40:10.294Z,5.37
2019-02-26T19:42:39.937Z,6.97
2019-02-26T19:45:11.887Z,12.30
2019-02-26T19:47:43.359Z,9.50
2019-02-26T19:50:14.734Z,9.10
2019-02-26T19:52:44.489Z,3.92
2019-02-26T19:55:17.576Z,8.35
2019-02-26T19:57:49.420Z,2.75
2019-02-26T20:00:20.003Z,4.00
2019-02-26T20:02:51.960Z,3.37
2019-02-26T20:05:21.587Z,3.95
2019-02-26T20:07:53.062Z,5.95
2019-02-26T20:10:22.632Z,4.03
2019-02-26T20:12:54.022Z,4.92
2019-02-26T20:15:26.074Z,3.90
2019-02-26T20:17:55.702Z,5.55
2019-02-26T20:20:25.340Z,5.85
2019-02-26T20:22:56.894Z,10.00
2019-02-26T20:25:26.595Z,4.40
2019-02-26T20:27:59.256Z,11.20
2019-02-26T20:30:27.621Z,5.33
2019-02-26T20:32:58.679Z,4.85
2019-02-26T20:35:28.334Z,6.67
2019-02-26T20:37:59.567Z,7.53
2019-02-26T20:40:29.206Z,5.87
2019-02-26T20:43:01.283Z,4.45
2019-02-26T20:45:30.274Z,4.58
2019-02-26T20:48:03.843Z,7.37
2019-02-26T20:50:31.378Z,9.98
2019-02-26T20:53:00.989Z,7.45
2019-02-26T20:55:33.856Z,6.30
2019-02-26T20:58:04.850Z,5.47
2019-02-26T21:00:34.492Z,7.95
2019-02-26T21:03:04.899Z,7.00
2019-02-26T21:05:34.638Z,6.62
2019-02-26T21:08:04.415Z,7.50
2019-02-26T21:10:34.199Z,5.80
2019-02-26T21:13:09.418Z,4.25
2019-02-26T21:15:39.043Z,6.45
2019-02-26T21:18:08.748Z,4.50
2019-02-26T21:20:38.851Z,4.53
2019-02-26T21:23:10.815Z,4.95
2019-02-26T21:25:43.923Z,6.60
2019-02-26T21:28:11.779Z,6.78
2019-02-26T21:30:47.603Z,4.83
2019-02-26T21:33:17.225Z,6.72
2019-02-26T21:35:46.843Z,4.42
2019-02-26T21:38:16.474Z,6.37
2019-02-26T21:40:48.687Z,12.98
2019-02-26T21:43:17.417Z,3.98
2019-02-26T21:45:49.272Z,4.15
2019-02-26T21:48:18.362Z,6.60
2019-02-26T21:50:48.055Z,7.10
2019-02-26T21:53:17.694Z,3.40
2019-02-26T21:55:47.296Z,8.43
2019-02-26T21:58:16.948Z,4.00
2019-02-26T22:00:46.680Z,8.95
2019-02-26T22:03:16.446Z,10.25
2019-02-26T22:05:46.052Z,6.25
2019-02-26T22:08:18.600Z,5.62
2019-02-26T22:10:48.233Z,12.07
2019-02-26T22:13:17.859Z,7.05
2019-02-26T22:15:52.946Z,5.95
2019-02-26T22:18:22.597Z,4.42
2019-02-26T22:20:52.319Z,4.50
2019-02-26T22:23:21.920Z,9.45
2019-02-26T22:25:52.641Z,8.28
2019-02-26T22:28:23.111Z,6.12
2019-02-26T22:30:55.721Z,6.00
2019-02-26T22:33:24.064Z,7.17
2019-02-26T22:35:56.971Z,7.50
2019-02-26T22:38:28.378Z,5.17
2019-02-26T22:40:59.933Z,10.85
2019-02-26T22:43:29.357Z,6.33
2019-02-26T22:46:01.136Z,5.05
2019-02-26T22:48:30.491Z,10.55
2019-02-26T22:51:00.327Z,13.40
2019-02-26T22:53:30.512Z,9.73
2019-02-26T22:56:02.620Z,5.08
2019-02-26T22:58:35.653Z,3.95
2019-02-26T23:01:30.253Z,6.53
2019-02-26T23:03:57.227Z,5.90
2019-02-26T23:06:26.895Z,6.25
2019-02-26T23:08:59.564Z,6.75
2019-02-26T23:11:36.981Z,5.90
2019-02-26T23:14:07.061Z,5.40
2019-02-26T23:16:37.205Z,4.80
2019-02-26T23:19:14.853Z,10.23
2019-02-26T23:21:44.877Z,11.57
2019-02-26T23:24:20.141Z,7.67
2019-02-26T23:26:49.924Z,5.42
2019-02-26T23:29:21.705Z,9.45
2019-02-26T23:31:51.388Z,5.30
2019-02-26T23:34:22.578Z,4.62
2019-02-26T23:36:52.626Z,4.08
2019-02-26T23:39:22.315Z,8.00
2019-02-26T23:41:52.902Z,6.42
2019-02-26T23:44:23.135Z,8.30
2019-02-26T23:46:53.834Z,9.48
2019-02-26T23:49:23.524Z,6.72
2019-02-26T23:51:53.670Z,6.97
2019-02-26T23:54:24.559Z,4.92
2019-02-26T23:56:54.253Z,10.75
2019-02-26T23:59:23.864Z,7.05
